createdAt,value
2018-01-13T00:01:53.767Z,73.70
2018-01-13T00:04:22.017Z,80.12
2018-01-13T00:06:49.624Z,78.53
2018-01-13T00:09:17.283Z,73.40
2018-01-13T00:11:46.163Z,80.30
2018-01-13T00:14:14.660Z,70.43
2018-01-13T00:16:42.933Z,76.00
2018-01-13T00:19:10.547Z,79.15
2018-01-13T00:21:38.119Z,68.45
2018-01-13T00:24:05.676Z,72.05
2018-01-13T00:26:33.192Z,81.12
2018-01-13T00:29:01.689Z,70.30
2018-01-13T00:31:29.957Z,75.07
2018-01-13T00:33:57.770Z,76.62
2018-01-13T00:36:25.308Z,76.78
2018-01-13T00:38:52.898Z,69.45
2018-01-13T00:41:20.419Z,82.32
2018-01-13T00:43:48.711Z,78.22
2018-01-13T00:46:17.024Z,64.75
2018-01-13T00:48:44.577Z,63.78
2018-01-13T00:51:12.058Z,70.03
2018-01-13T00:53:39.562Z,81.87
2018-01-13T00:56:07.853Z,85.80
2018-01-13T00:58:35.901Z,83.47
2018-01-13T01:01:03.408Z,63.10
2018-01-13T01:03:31.703Z,67.70
2018-01-13T01:05:59.184Z,74.97
2018-01-13T01:08:26.711Z,75.43
2018-01-13T01:10:54.966Z,61.35
2018-01-13T01:13:22.506Z,66.93
2018-01-13T01:15:50.012Z,66.90
2018-01-13T01:18:18.291Z,65.20
2018-01-13T01:20:47.384Z,64.25
2018-01-13T01:23:15.809Z,69.05
2018-01-13T01:25:43.370Z,68.47
2018-01-13T01:28:13.810Z,78.75
2018-01-13T01:30:45.901Z,67.00
2018-01-13T01:33:13.945Z,66.15
2018-01-13T01:35:41.914Z,70.35
2018-01-13T01:38:09.691Z,54.40
2018-01-13T01:40:37.682Z,58.33
2018-01-13T01:43:05.172Z,69.78
2018-01-13T01:45:33.109Z,63.53
2018-01-13T01:48:00.731Z,57.30
2018-01-13T01:50:29.808Z,65.25
2018-01-13T01:52:57.434Z,69.43
2018-01-13T01:55:25.781Z,61.33
2018-01-13T01:57:54.884Z,60.35
2018-01-13T02:00:22.517Z,64.82
2018-01-13T02:02:50.165Z,67.82
2018-01-13T02:05:18.991Z,65.85
2018-01-13T02:07:46.578Z,58.60
2018-01-13T02:10:14.981Z,66.78
2018-01-13T02:12:42.476Z,69.25
2018-01-13T02:15:11.201Z,71.95
2018-01-13T02:17:39.507Z,66.75
2018-01-13T02:20:07.776Z,68.57
2018-01-13T02:22:36.073Z,75.97
2018-01-13T02:25:03.709Z,80.43
2018-01-13T02:27:31.971Z,78.07
2018-01-13T02:29:59.493Z,72.53
2018-01-13T02:32:27.908Z,83.30
2018-01-13T02:34:56.352Z,79.57
2018-01-13T02:37:23.848Z,75.93
2018-01-13T02:39:51.518Z,76.28
2018-01-13T02:42:19.064Z,73.80
2018-01-13T02:44:47.594Z,69.22
2018-01-13T02:47:16.485Z,71.12
2018-01-13T02:49:44.784Z,80.35
2018-01-13T02:52:12.319Z,73.03
2018-01-13T02:54:39.841Z,79.30
2018-01-13T02:57:07.340Z,96.00
2018-01-13T02:59:34.850Z,84.95
2018-01-13T03:02:02.373Z,67.37
2018-01-13T03:04:30.410Z,83.70
2018-01-13T03:06:58.060Z,81.18
2018-01-13T03:09:26.693Z,92.50
2018-01-13T03:11:54.192Z,78.28
2018-01-13T03:14:22.493Z,69.18
2018-01-13T03:16:52.024Z,81.20
2018-01-13T03:19:19.528Z,78.45
2018-01-13T03:21:47.032Z,86.20
2018-01-13T03:24:14.561Z,91.63
2018-01-13T03:26:42.089Z,78.20
2018-01-13T03:29:11.145Z,85.00
2018-01-13T03:31:38.990Z,78.53
2018-01-13T03:34:07.254Z,83.72
2018-01-13T03:36:36.428Z,74.45
2018-01-13T03:39:03.935Z,78.57
2018-01-13T03:41:32.150Z,84.90
2018-01-13T03:43:59.657Z,86.35
2018-01-13T03:46:28.724Z,77.62
2018-01-13T03:48:56.897Z,88.03
2018-01-13T03:51:24.469Z,80.78
2018-01-13T03:53:51.975Z,69.37
2018-01-13T03:56:19.512Z,72.20
2018-01-13T03:58:47.649Z,83.55
2018-01-13T04:01:15.984Z,80.85
2018-01-13T04:03:44.630Z,80.30
2018-01-13T04:06:13.001Z,72.07
2018-01-13T04:08:41.266Z,76.25
2018-01-13T04:11:08.791Z,74.10
2018-01-13T04:13:36.324Z,82.53
2018-01-13T04:16:03.820Z,79.65
2018-01-13T04:18:31.317Z,87.07
2018-01-13T04:20:58.900Z,79.57
2018-01-13T04:23:26.463Z,73.40
2018-01-13T04:25:54.123Z,78.85
2018-01-13T04:28:22.412Z,75.40
2018-01-13T04:30:50.801Z,65.57
2018-01-13T04:33:18.310Z,79.57
2018-01-13T04:35:46.627Z,70.70
2018-01-13T04:38:14.921Z,68.40
2018-01-13T04:40:43.200Z,86.30
2018-01-13T04:43:10.759Z,66.97
2018-01-13T04:45:39.057Z,77.80
2018-01-13T04:48:08.600Z,88.47
2018-01-13T04:50:36.106Z,71.72
2018-01-13T04:53:04.375Z,71.65
2018-01-13T04:55:31.914Z,74.43
2018-01-13T04:57:59.402Z,76.22
2018-01-13T05:00:26.908Z,80.60
2018-01-13T05:02:54.415Z,66.12
2018-01-13T05:05:22.799Z,77.45
2018-01-13T05:07:50.552Z,66.10
2018-01-13T05:10:18.793Z,64.55
2018-01-13T05:12:46.348Z,68.12
2018-01-13T05:15:14.633Z,69.28
2018-01-13T05:17:43.758Z,76.20
2018-01-13T05:20:11.868Z,75.53
2018-01-13T05:22:39.477Z,70.20
2018-01-13T05:25:07.749Z,67.70
2018-01-13T05:27:36.043Z,68.57
2018-01-13T05:30:04.297Z,77.70
2018-01-13T05:32:32.709Z,71.12
2018-01-13T05:35:00.311Z,59.70
2018-01-13T05:37:27.825Z,69.05
2018-01-13T05:39:57.113Z,70.37
2018-01-13T05:42:25.410Z,60.95
2018-01-13T05:44:53.690Z,68.82
2018-01-13T05:47:21.949Z,60.50
2018-01-13T05:49:49.452Z,65.75
2018-01-13T05:52:18.658Z,65.00
2018-01-13T05:54:46.137Z,54.17
2018-01-13T05:57:13.661Z,58.72
2018-01-13T05:59:41.920Z,59.90
2018-01-13T06:02:10.191Z,55.65
2018-01-13T06:04:37.680Z,54.47
2018-01-13T06:07:05.944Z,55.30
2018-01-13T06:09:33.441Z,58.55
2018-01-13T06:12:00.953Z,56.72
2018-01-13T06:14:28.705Z,48.50
2018-01-13T06:16:59.024Z,51.85
2018-01-13T06:19:26.541Z,52.20
2018-01-13T06:21:55.599Z,52.90
2018-01-13T06:24:23.121Z,52.70
2018-01-13T06:26:50.640Z,47.88
2018-01-13T06:29:19.627Z,51.03
2018-01-13T06:31:47.344Z,55.67
2018-01-13T06:34:15.616Z,49.90
2018-01-13T06:36:43.896Z,48.83
2018-01-13T06:39:12.171Z,47.03
2018-01-13T06:41:41.004Z,50.40
2018-01-13T06:44:08.546Z,58.30
2018-01-13T06:46:37.294Z,51.97
2018-01-13T06:49:04.923Z,49.05
2018-01-13T06:51:33.333Z,42.17
2018-01-13T06:54:01.566Z,43.28
2018-01-13T06:56:29.962Z,41.88
2018-01-13T06:58:57.469Z,40.78
2018-01-13T07:01:24.972Z,39.92
2018-01-13T07:03:53.253Z,36.97
2018-01-13T07:06:21.527Z,40.50
2018-01-13T07:08:49.806Z,45.47
2018-01-13T07:11:17.463Z,35.50
2018-01-13T07:13:44.955Z,35.67
2018-01-13T07:16:14.799Z,44.78
2018-01-13T07:18:42.340Z,35.80
2018-01-13T07:21:09.844Z,36.80
2018-01-13T07:23:37.644Z,42.58
2018-01-13T07:26:05.918Z,36.92
2018-01-13T07:28:34.439Z,32.67
2018-01-13T07:31:01.940Z,39.40
2018-01-13T07:33:29.491Z,37.38
2018-01-13T07:35:58.586Z,37.03
2018-01-13T07:38:26.887Z,34.28
2018-01-13T07:40:54.668Z,29.17
2018-01-13T07:43:22.989Z,33.15
2018-01-13T07:45:52.434Z,36.15
2018-01-13T07:48:21.107Z,31.65
2018-01-13T07:50:48.622Z,35.15
2018-01-13T07:53:16.901Z,34.80
2018-01-13T07:55:46.266Z,32.47
2018-01-13T07:58:13.791Z,41.25
2018-01-13T08:00:41.324Z,30.25
2018-01-13T08:03:09.526Z,36.05
2018-01-13T08:05:37.833Z,33.83
2018-01-13T08:08:06.167Z,34.38
2018-01-13T08:10:33.679Z,27.92
2018-01-13T08:13:01.309Z,27.05
2018-01-13T08:15:30.362Z,29.05
2018-01-13T08:17:57.871Z,24.90
2018-01-13T08:20:25.380Z,32.40
2018-01-13T08:22:53.416Z,26.40
2018-01-13T08:25:21.682Z,26.73
2018-01-13T08:27:49.186Z,24.27
2018-01-13T08:30:17.126Z,22.27
2018-01-13T08:32:45.406Z,26.85
2018-01-13T08:35:12.948Z,26.95
2018-01-13T08:37:40.539Z,29.48
2018-01-13T08:40:08.038Z,23.80
2018-01-13T08:42:35.555Z,22.95
2018-01-13T08:45:04.139Z,23.67
2018-01-13T08:47:31.719Z,22.50
2018-01-13T08:50:00.104Z,20.55
2018-01-13T08:52:28.400Z,26.12
2018-01-13T08:54:57.177Z,28.87
2018-01-13T08:57:25.913Z,26.33
2018-01-13T08:59:53.448Z,25.30
2018-01-13T09:02:22.886Z,21.12
2018-01-13T09:04:50.373Z,24.27
2018-01-13T09:07:18.892Z,23.33
2018-01-13T09:09:47.181Z,20.92
2018-01-13T09:12:15.461Z,23.58
2018-01-13T09:14:43.809Z,24.20
2018-01-13T09:17:11.317Z,25.37
2018-01-13T09:19:38.899Z,27.87
2018-01-13T09:22:06.456Z,24.58
2018-01-13T09:24:33.992Z,22.58
2018-01-13T09:27:02.371Z,23.50
2018-01-13T09:29:29.878Z,27.87
2018-01-13T09:31:57.390Z,22.98
2018-01-13T09:34:25.698Z,22.80
2018-01-13T09:36:53.270Z,23.77
2018-01-13T09:39:20.805Z,21.65
2018-01-13T09:41:48.378Z,22.23
2018-01-13T09:44:16.658Z,21.80
2018-01-13T09:46:44.958Z,25.95
2018-01-13T09:49:12.486Z,20.17
2018-01-13T09:51:41.862Z,24.17
2018-01-13T09:54:09.397Z,20.70
2018-01-13T09:56:37.501Z,28.73
2018-01-13T09:59:06.170Z,18.52
2018-01-13T10:01:34.312Z,21.75
2018-01-13T10:04:02.726Z,23.60
2018-01-13T10:06:31.101Z,20.33
2018-01-13T10:08:59.737Z,20.17
2018-01-13T10:11:27.249Z,22.17
2018-01-13T10:13:54.803Z,19.85
2018-01-13T10:16:24.008Z,21.25
2018-01-13T10:18:52.408Z,24.67
2018-01-13T10:21:20.767Z,21.95
2018-01-13T10:23:49.079Z,20.77
2018-01-13T10:26:16.641Z,21.62
2018-01-13T10:28:44.194Z,24.23
2018-01-13T10:31:12.460Z,26.55
2018-01-13T10:33:41.503Z,28.38
2018-01-13T10:36:09.167Z,28.12
2018-01-13T10:38:36.777Z,21.35
2018-01-13T10:41:05.991Z,26.30
2018-01-13T10:43:34.521Z,24.12
2018-01-13T10:46:02.269Z,17.60
2018-01-13T10:48:29.857Z,18.77
2018-01-13T10:50:58.128Z,36.83
2018-01-13T10:53:26.081Z,22.15
2018-01-13T10:55:57.115Z,21.08
2018-01-13T10:58:27.003Z,26.90
2018-01-13T11:00:55.328Z,29.00
2018-01-13T11:03:22.999Z,22.15
2018-01-13T11:05:50.570Z,29.48
2018-01-13T11:08:18.221Z,20.75
2018-01-13T11:10:46.161Z,19.00
2018-01-13T11:13:14.488Z,22.13
2018-01-13T11:15:42.798Z,22.62
2018-01-13T11:18:10.415Z,71.97
2018-01-13T11:20:41.199Z,28.80
2018-01-13T11:23:09.627Z,25.60
2018-01-13T11:25:37.355Z,23.35
2018-01-13T11:28:05.933Z,19.55
2018-01-13T11:30:34.127Z,21.60
2018-01-13T11:33:01.648Z,20.58
2018-01-13T11:35:29.192Z,21.83
2018-01-13T11:37:57.523Z,23.45
2018-01-13T11:40:25.024Z,19.10
2018-01-13T11:42:52.568Z,22.27
2018-01-13T11:45:20.759Z,20.50
2018-01-13T11:47:48.254Z,18.05
2018-01-13T11:50:17.136Z,23.25
2018-01-13T11:52:46.307Z,21.55
2018-01-13T11:55:14.755Z,21.77
2018-01-13T11:57:43.081Z,19.50
2018-01-13T12:00:10.580Z,17.70
2018-01-13T12:02:38.148Z,18.95
2018-01-13T12:05:05.951Z,22.30
2018-01-13T12:07:33.470Z,19.73
2018-01-13T12:10:01.870Z,23.87
2018-01-13T12:12:30.031Z,19.65
2018-01-13T12:14:58.357Z,17.77
2018-01-13T12:17:26.233Z,19.10
2018-01-13T12:19:54.556Z,16.75
2018-01-13T12:22:22.869Z,21.85
2018-01-13T12:24:51.247Z,16.85
2018-01-13T12:27:18.744Z,17.92
2018-01-13T12:29:46.297Z,22.13
2018-01-13T12:32:14.229Z,23.25
2018-01-13T12:34:43.492Z,17.27
2018-01-13T12:37:12.172Z,30.02
2018-01-13T12:39:41.116Z,20.92
2018-01-13T12:42:09.472Z,15.93
2018-01-13T12:44:38.010Z,20.90
2018-01-13T12:47:06.293Z,19.02
2018-01-13T12:49:33.885Z,19.17
2018-01-13T12:52:03.491Z,17.85
2018-01-13T12:54:30.972Z,19.85
2018-01-13T12:56:58.496Z,21.75
2018-01-13T12:59:26.055Z,25.62
2018-01-13T13:01:53.553Z,16.77
2018-01-13T13:04:21.894Z,20.88
2018-01-13T13:06:49.462Z,19.30
2018-01-13T13:09:16.944Z,17.92
2018-01-13T13:11:44.455Z,25.05
2018-01-13T13:14:12.712Z,19.20
2018-01-13T13:16:40.271Z,18.23
2018-01-13T13:19:08.327Z,16.85
2018-01-13T13:21:35.821Z,16.85
2018-01-13T13:24:04.008Z,22.40
2018-01-13T13:26:33.670Z,20.00
2018-01-13T13:29:01.201Z,14.18
2018-01-13T13:31:29.528Z,18.80
2018-01-13T13:33:57.040Z,18.30
2018-01-13T13:36:25.328Z,18.70
2018-01-13T13:38:53.721Z,16.35
2018-01-13T13:41:22.281Z,26.17
2018-01-13T13:43:52.071Z,13.65
2018-01-13T13:46:19.957Z,20.33
2018-01-13T13:48:47.808Z,14.07
2018-01-13T13:51:15.517Z,15.73
2018-01-13T13:53:43.836Z,16.70
2018-01-13T13:56:11.374Z,14.85
2018-01-13T13:58:39.890Z,13.10
2018-01-13T14:01:28.433Z,10.30
2018-01-13T14:03:35.960Z,12.45
2018-01-13T14:06:03.531Z,12.93
2018-01-13T14:08:31.786Z,14.00
2018-01-13T14:10:59.440Z,12.37
2018-01-13T14:13:27.597Z,13.30
2018-01-13T14:15:57.846Z,13.15
2018-01-13T14:18:26.355Z,11.85
2018-01-13T14:20:53.889Z,17.00
2018-01-13T14:23:21.537Z,12.68
2018-01-13T14:25:49.941Z,10.63
2018-01-13T14:28:17.512Z,10.98
2018-01-13T14:30:45.509Z,13.85
2018-01-13T14:33:13.097Z,8.77
2018-01-13T14:35:40.797Z,13.73
2018-01-13T14:38:09.133Z,9.13
2018-01-13T14:40:36.751Z,14.00
2018-01-13T14:43:04.552Z,11.52
2018-01-13T14:45:32.188Z,9.05
2018-01-13T14:47:59.797Z,12.77
2018-01-13T14:50:28.714Z,10.18
2018-01-13T14:52:56.452Z,11.82
2018-01-13T14:55:23.944Z,10.48
2018-01-13T14:57:51.449Z,9.63
2018-01-13T15:00:20.348Z,13.35
2018-01-13T15:02:48.940Z,10.10
2018-01-13T15:05:16.458Z,10.05
2018-01-13T15:07:44.881Z,11.60
2018-01-13T15:10:12.805Z,11.52
2018-01-13T15:12:40.350Z,10.90
2018-01-13T15:15:08.416Z,13.38
2018-01-13T15:17:36.004Z,11.45
2018-01-13T15:20:03.494Z,10.73
2018-01-13T15:22:31.832Z,11.88
2018-01-13T15:24:59.334Z,11.43
2018-01-13T15:27:26.838Z,13.05
2018-01-13T15:29:54.351Z,11.50
2018-01-13T15:32:21.889Z,13.48
2018-01-13T15:34:50.215Z,9.43
2018-01-13T15:37:18.374Z,10.63
2018-01-13T15:39:45.993Z,13.13
2018-01-13T15:42:14.112Z,12.25
2018-01-13T15:44:41.667Z,13.88
2018-01-13T15:47:09.281Z,13.80
2018-01-13T15:49:37.297Z,14.23
2018-01-13T15:52:05.254Z,13.32
2018-01-13T15:54:33.085Z,15.55
2018-01-13T15:57:01.939Z,14.57
2018-01-13T15:59:29.484Z,16.12
2018-01-13T16:01:57.045Z,18.08
2018-01-13T16:04:24.559Z,21.52
2018-01-13T16:06:52.893Z,16.02
2018-01-13T16:09:20.443Z,18.70
2018-01-13T16:11:48.503Z,15.55
2018-01-13T16:14:16.074Z,13.60
2018-01-13T16:16:43.638Z,13.88
2018-01-13T16:19:11.173Z,15.38
2018-01-13T16:24:08.442Z,13.68
2018-01-13T16:26:36.555Z,21.12
2018-01-13T16:29:04.062Z,14.30
2018-01-13T16:31:31.568Z,15.10
2018-01-13T16:33:59.077Z,16.00
2018-01-13T16:36:26.924Z,18.75
2018-01-13T16:38:54.445Z,25.48
2018-01-13T16:41:21.968Z,19.70
2018-01-13T16:43:50.138Z,23.35
2018-01-13T16:46:17.629Z,21.23
2018-01-13T16:48:45.212Z,20.50
2018-01-13T16:51:12.776Z,18.70
2018-01-13T16:53:41.483Z,23.20
2018-01-13T16:56:09.754Z,18.92
2018-01-13T16:58:37.362Z,26.40
2018-01-13T17:01:04.888Z,22.20
2018-01-13T17:03:32.659Z,22.75
2018-01-13T17:06:00.154Z,27.23
2018-01-13T17:08:27.650Z,20.20
2018-01-13T17:10:55.177Z,26.05
2018-01-13T17:13:24.492Z,21.42
2018-01-13T17:15:53.244Z,21.02
2018-01-13T17:18:21.562Z,19.33
2018-01-13T17:20:49.086Z,22.42
2018-01-13T17:23:17.118Z,21.02
2018-01-13T17:25:44.766Z,25.08
2018-01-13T17:28:13.081Z,22.75
2018-01-13T17:30:41.200Z,26.27
2018-01-13T17:33:09.461Z,26.62
2018-01-13T17:35:37.749Z,25.45
2018-01-13T17:38:05.330Z,18.77
2018-01-13T17:40:33.640Z,19.42
2018-01-13T17:43:01.176Z,17.65
2018-01-13T17:45:29.451Z,16.30
2018-01-13T17:47:58.238Z,20.60
2018-01-13T17:50:26.493Z,17.92
2018-01-13T17:52:53.985Z,18.62
2018-01-13T17:55:22.275Z,18.60
2018-01-13T17:57:50.642Z,16.15
2018-01-13T18:00:18.924Z,24.87
2018-01-13T18:02:46.467Z,15.98
2018-01-13T18:05:14.779Z,18.27
2018-01-13T18:07:43.125Z,19.90
2018-01-13T18:10:10.776Z,17.75
2018-01-13T18:12:38.272Z,12.20
2018-01-13T18:15:05.849Z,13.13
2018-01-13T18:17:34.151Z,13.88
2018-01-13T18:20:01.870Z,14.63
2018-01-13T18:22:30.332Z,15.05
2018-01-13T18:24:57.902Z,23.95
2018-01-13T18:27:25.754Z,15.10
2018-01-13T18:29:53.277Z,16.42
2018-01-13T18:32:21.565Z,12.82
2018-01-13T18:34:49.845Z,15.60
2018-01-13T18:37:18.152Z,17.77
2018-01-13T18:39:45.704Z,17.40
2018-01-13T18:42:13.234Z,11.73
2018-01-13T18:44:40.798Z,13.75
2018-01-13T18:47:08.334Z,17.17
2018-01-13T18:49:35.857Z,18.67
2018-01-13T18:52:04.781Z,20.85
2018-01-13T18:54:32.304Z,32.20
2018-01-13T18:57:00.654Z,28.80
2018-01-13T18:59:28.175Z,23.83
2018-01-13T19:01:55.681Z,23.23
2018-01-13T19:04:23.317Z,18.52
2018-01-13T19:06:51.409Z,25.67
2018-01-13T19:09:18.944Z,20.95
2018-01-13T19:11:46.476Z,19.35
2018-01-13T19:14:14.788Z,21.80
2018-01-13T19:16:42.337Z,30.42
2018-01-13T19:19:10.644Z,29.52
2018-01-13T19:21:38.185Z,22.50
2018-01-13T19:24:06.466Z,33.72
2018-01-13T19:26:34.763Z,13.88
2018-01-13T19:29:02.256Z,15.60
2018-01-13T19:31:29.742Z,15.25
2018-01-13T19:33:58.749Z,16.02
2018-01-13T19:36:26.333Z,18.73
2018-01-13T19:38:54.597Z,14.60
2018-01-13T19:41:22.332Z,29.63
2018-01-13T19:43:49.844Z,21.52
2018-01-13T19:46:18.160Z,18.67
2018-01-13T19:48:45.652Z,15.93
2018-01-13T19:51:13.269Z,18.25
2018-01-13T19:53:40.773Z,19.05
2018-01-13T19:56:08.271Z,20.20
2018-01-13T19:58:36.541Z,21.25
2018-01-13T20:03:36.661Z,15.68
2018-01-13T20:06:04.172Z,19.55
2018-01-13T20:08:33.595Z,16.10
2018-01-13T20:11:01.174Z,13.32
2018-01-13T20:13:28.732Z,16.20
2018-01-13T20:15:56.244Z,16.87
2018-01-13T20:18:23.798Z,19.08
2018-01-13T20:20:51.392Z,20.62
2018-01-13T20:23:19.672Z,15.13
2018-01-13T20:25:47.981Z,19.20
2018-01-13T20:28:16.492Z,14.60
2018-01-13T20:30:44.025Z,22.35
2018-01-13T20:33:11.566Z,18.48
2018-01-13T20:35:39.052Z,16.58
2018-01-13T20:38:07.330Z,17.05
2018-01-13T20:40:35.719Z,21.70
2018-01-13T20:43:03.224Z,17.42
2018-01-13T20:45:31.189Z,18.83
2018-01-13T20:47:58.701Z,22.52
2018-01-13T20:50:27.027Z,17.65
2018-01-13T20:52:54.625Z,32.78
2018-01-13T20:55:22.955Z,14.98
2018-01-13T20:57:50.897Z,13.88
2018-01-13T21:00:19.269Z,20.00
2018-01-13T21:02:48.001Z,20.30
2018-01-13T21:05:15.506Z,20.90
2018-01-13T21:07:43.234Z,24.17
2018-01-13T21:10:10.759Z,29.80
2018-01-13T21:12:39.696Z,19.48
2018-01-13T21:15:07.411Z,22.27
2018-01-13T21:17:35.072Z,17.12
2018-01-13T21:20:02.768Z,19.40
2018-01-13T21:22:31.045Z,14.25
2018-01-13T21:24:59.377Z,20.12
2018-01-13T21:27:26.953Z,18.90
2018-01-13T21:29:54.623Z,15.80
2018-01-13T21:32:23.877Z,19.33
2018-01-13T21:34:51.481Z,22.83
2018-01-13T21:37:20.253Z,18.25
2018-01-13T21:39:48.512Z,19.40
2018-01-13T21:42:16.023Z,22.62
2018-01-13T21:44:44.110Z,73.40
2018-01-13T21:47:11.743Z,22.58
2018-01-13T21:49:39.345Z,19.90
2018-01-13T21:52:08.337Z,22.55
2018-01-13T21:54:35.904Z,29.48
2018-01-13T21:57:03.961Z,18.40
2018-01-13T21:59:32.295Z,21.80
2018-01-13T22:01:59.920Z,22.65
2018-01-13T22:04:28.321Z,18.20
2018-01-13T22:06:56.908Z,23.65
2018-01-13T22:09:24.480Z,17.62
2018-01-13T22:11:52.812Z,17.30
2018-01-13T22:14:20.414Z,17.80
2018-01-13T22:16:47.978Z,28.70
2018-01-13T22:19:15.560Z,18.83
2018-01-13T22:21:44.647Z,22.10
2018-01-13T22:24:12.206Z,20.50
2018-01-13T22:26:39.914Z,18.12
2018-01-13T22:29:07.412Z,21.95
2018-01-13T22:31:34.945Z,19.73
2018-01-13T22:34:02.464Z,19.48
2018-01-13T22:36:29.961Z,25.73
2018-01-13T22:38:57.459Z,34.63
2018-01-13T22:41:25.008Z,21.00
2018-01-13T22:43:53.028Z,25.25
2018-01-13T22:46:21.350Z,23.80
2018-01-13T22:48:49.859Z,21.58
2018-01-13T22:51:17.369Z,23.40
2018-01-13T22:53:47.139Z,25.65
2018-01-13T22:56:14.613Z,21.52
2018-01-13T22:58:42.204Z,25.77
2018-01-13T23:01:09.741Z,25.58
2018-01-13T23:03:37.236Z,22.40
2018-01-13T23:06:04.749Z,19.20
2018-01-13T23:08:32.251Z,19.87
2018-01-13T23:10:59.807Z,22.92
2018-01-13T23:13:27.332Z,27.02
2018-01-13T23:15:54.910Z,26.12
2018-01-13T23:18:22.432Z,27.30
2018-01-13T23:20:50.727Z,25.00
2018-01-13T23:23:18.338Z,22.13
2018-01-13T23:25:45.855Z,22.50
2018-01-13T23:28:14.113Z,25.90
2018-01-13T23:30:41.615Z,27.77
2018-01-13T23:33:09.155Z,26.52
2018-01-13T23:35:37.478Z,21.60
2018-01-13T23:38:04.985Z,18.90
2018-01-13T23:40:33.139Z,24.30
2018-01-13T23:43:00.656Z,23.27
2018-01-13T23:45:28.503Z,25.30
2018-01-13T23:47:57.292Z,24.40
2018-01-13T23:50:25.546Z,30.50
2018-01-13T23:52:53.045Z,25.65
2018-01-13T23:55:21.448Z,22.37
2018-01-13T23:57:50.148Z,31.23
